createdAt,value
2023-12-17T00:02:24.905Z,102000.75
2023-12-17T00:04:51.417Z,101996.09
2023-12-17T00:07:18.184Z,102002.75
2023-12-17T00:09:44.617Z,102005.34
2023-12-17T00:12:11.162Z,101997.63
2023-12-17T00:14:37.741Z,101998.63
2023-12-17T00:17:04.436Z,101988.75
2023-12-17T00:19:31.123Z,101988.94
2023-12-17T00:21:57.619Z,101990.72
2023-12-17T00:24:24.244Z,101998.53
2023-12-17T00:26:50.730Z,101987.69
2023-12-17T00:29:17.161Z,101999.19
2023-12-17T00:31:43.747Z,101995.50
2023-12-17T00:34:10.324Z,102009.09
2023-12-17T00:36:37.212Z,102000.50
2023-12-17T00:39:04.364Z,102004.19
2023-12-17T00:41:32.611Z,102006.94
2023-12-17T00:43:59.023Z,102001.66
2023-12-17T00:46:25.733Z,101996.44
2023-12-17T00:48:52.313Z,101998.25
2023-12-17T00:51:19.632Z,101984.88
2023-12-17T00:53:46.133Z,101973.25
2023-12-17T00:56:13.661Z,101983.97
2023-12-17T00:58:40.097Z,101984.00
2023-12-17T01:01:07.067Z,101983.19
2023-12-17T01:03:33.647Z,101989.38
2023-12-17T01:06:00.576Z,101986.72
2023-12-17T01:08:27.218Z,101977.03
2023-12-17T01:10:53.648Z,101979.72
2023-12-17T01:13:20.382Z,101986.41
2023-12-17T01:15:46.958Z,101975.13
2023-12-17T01:18:13.724Z,101981.06
2023-12-17T01:20:41.584Z,101990.91
2023-12-17T01:23:08.247Z,101986.53
2023-12-17T01:25:35.466Z,101981.31
2023-12-17T01:28:02.062Z,101979.53
2023-12-17T01:30:28.634Z,101976.84
2023-12-17T01:32:55.530Z,101991.81
2023-12-17T01:35:22.051Z,101990.97
2023-12-17T01:37:48.501Z,101981.25
2023-12-17T01:40:15.114Z,101987.53
2023-12-17T01:42:41.637Z,101996.22
2023-12-17T01:45:08.646Z,101996.91
2023-12-17T01:47:36.296Z,102008.50
2023-12-17T01:50:03.286Z,102017.59
2023-12-17T01:52:29.977Z,102015.78
2023-12-17T01:54:56.661Z,102020.50
2023-12-17T01:57:23.547Z,102026.66
2023-12-17T01:59:51.294Z,102034.56
2023-12-17T02:02:18.116Z,102043.22
2023-12-17T02:04:45.356Z,102042.22
2023-12-17T02:07:12.001Z,102031.19
2023-12-17T02:09:38.712Z,102033.16
2023-12-17T02:12:06.011Z,102033.00
2023-12-17T02:14:32.544Z,102026.00
2023-12-17T02:16:59.163Z,102034.75
2023-12-17T02:19:25.847Z,102031.75
2023-12-17T02:21:52.682Z,102016.66
2023-12-17T02:24:19.310Z,102013.91
2023-12-17T02:26:45.809Z,102013.00
2023-12-17T02:29:12.390Z,102008.63
2023-12-17T02:31:38.853Z,102006.06
2023-12-17T02:34:05.533Z,102005.06
2023-12-17T02:36:32.101Z,102011.22
2023-12-17T02:38:58.919Z,101996.84
2023-12-17T02:41:25.485Z,101983.69
2023-12-17T02:43:52.123Z,101986.28
2023-12-17T02:46:18.575Z,101993.84
2023-12-17T02:48:45.489Z,101984.97
2023-12-17T02:51:12.069Z,101985.81
2023-12-17T02:53:38.689Z,101995.34
2023-12-17T02:56:05.558Z,101988.38
2023-12-17T02:58:31.998Z,101983.34
2023-12-17T03:00:58.592Z,101981.47
2023-12-17T03:03:25.132Z,101981.25
2023-12-17T03:05:51.895Z,101984.06
2023-12-17T03:08:18.507Z,101981.50
2023-12-17T03:10:45.218Z,101984.16
2023-12-17T03:13:11.748Z,101984.31
2023-12-17T03:15:39.083Z,101988.63
2023-12-17T03:18:06.165Z,101992.41
2023-12-17T03:20:32.842Z,101990.97
2023-12-17T03:22:59.764Z,101980.34
2023-12-17T03:25:27.154Z,101975.41
2023-12-17T03:27:53.993Z,101980.59
2023-12-17T03:30:21.005Z,101983.28
2023-12-17T03:32:47.826Z,101972.84
2023-12-17T03:35:14.695Z,101978.19
2023-12-17T03:37:41.668Z,101981.78
2023-12-17T03:40:08.849Z,101986.06
2023-12-17T03:42:35.432Z,101986.94
2023-12-17T03:45:02.638Z,101976.22
2023-12-17T03:47:29.570Z,101976.88
2023-12-17T03:49:56.188Z,101969.38
2023-12-17T03:52:22.702Z,101959.34
2023-12-17T03:54:49.307Z,101963.13
2023-12-17T03:57:15.840Z,101952.69
2023-12-17T03:59:42.440Z,101946.66
2023-12-17T04:02:08.949Z,101939.75
2023-12-17T04:04:35.512Z,101934.41
2023-12-17T04:07:01.940Z,101930.19
2023-12-17T04:09:28.621Z,101934.41
2023-12-17T04:11:55.176Z,101933.84
2023-12-17T04:14:21.648Z,101928.97
2023-12-17T04:16:48.258Z,101926.50
2023-12-17T04:19:14.969Z,101921.06
2023-12-17T04:21:41.747Z,101929.91
2023-12-17T04:24:08.358Z,101927.88
2023-12-17T04:26:35.951Z,101924.56
2023-12-17T04:29:02.567Z,101921.66
2023-12-17T04:31:29.172Z,101925.34
2023-12-17T04:33:55.749Z,101928.25
2023-12-17T04:36:22.323Z,101926.53
2023-12-17T04:38:49.862Z,101920.38
2023-12-17T04:41:16.429Z,101921.25
2023-12-17T04:43:42.897Z,101923.84
2023-12-17T04:46:10.223Z,101917.44
2023-12-17T04:48:36.867Z,101918.41
2023-12-17T04:51:03.666Z,101927.44
2023-12-17T04:53:30.347Z,101922.03
2023-12-17T04:55:56.854Z,101925.59
2023-12-17T04:58:23.421Z,101916.16
2023-12-17T05:00:50.572Z,101918.69
2023-12-17T05:03:17.283Z,101913.41
2023-12-17T05:05:43.989Z,101914.47
2023-12-17T05:08:10.774Z,101918.81
2023-12-17T05:10:37.245Z,101922.00
2023-12-17T05:13:03.750Z,101915.66
2023-12-17T05:15:30.432Z,101914.28
2023-12-17T05:17:57.075Z,101911.75
2023-12-17T05:20:23.592Z,101911.91
2023-12-17T05:22:51.751Z,101915.19
2023-12-17T05:25:18.181Z,101921.63
2023-12-17T05:27:44.727Z,101927.75
2023-12-17T05:30:13.079Z,101933.03
2023-12-17T05:32:40.270Z,101916.72
2023-12-17T05:35:07.474Z,101916.84
2023-12-17T05:37:34.191Z,101928.13
2023-12-17T05:40:00.692Z,101920.31
2023-12-17T05:42:27.270Z,101924.00
2023-12-17T05:44:53.965Z,101924.91
2023-12-17T05:47:20.483Z,101929.31
2023-12-17T05:49:47.197Z,101930.00
2023-12-17T05:52:14.159Z,101933.56
2023-12-17T05:54:40.696Z,101932.16
2023-12-17T05:57:07.401Z,101940.34
2023-12-17T05:59:34.089Z,101943.25
2023-12-17T06:02:00.761Z,101955.75
2023-12-17T06:04:28.256Z,101940.66
2023-12-17T06:06:58.666Z,101944.00
2023-12-17T06:09:25.193Z,101941.88
2023-12-17T06:11:51.706Z,101945.53
2023-12-17T06:14:19.113Z,101944.78
2023-12-17T06:16:45.877Z,101939.44
2023-12-17T06:19:12.716Z,101940.06
2023-12-17T06:21:39.401Z,101953.38
2023-12-17T06:24:06.316Z,101950.84
2023-12-17T06:26:34.828Z,101960.63
2023-12-17T06:29:01.301Z,101965.28
2023-12-17T06:31:27.967Z,101966.06
2023-12-17T06:33:55.056Z,101957.56
2023-12-17T06:36:22.382Z,101969.81
2023-12-17T06:38:49.113Z,101968.00
2023-12-17T06:41:15.631Z,101966.75
2023-12-17T06:43:42.243Z,101971.13
2023-12-17T06:46:09.076Z,101964.16
2023-12-17T06:48:36.855Z,101961.78
2023-12-17T06:51:04.857Z,101961.19
2023-12-17T06:53:31.360Z,101957.50
2023-12-17T06:55:58.033Z,101950.69
2023-12-17T06:58:24.638Z,101957.78
2023-12-17T07:00:53.668Z,101959.16
2023-12-17T07:03:20.368Z,101967.94
2023-12-17T07:05:47.657Z,101975.81
2023-12-17T07:08:14.232Z,101976.50
2023-12-17T07:10:40.843Z,101986.63
2023-12-17T07:13:07.412Z,101975.00
2023-12-17T07:15:33.861Z,101989.41
2023-12-17T07:18:00.573Z,101981.31
2023-12-17T07:20:27.078Z,101976.53
2023-12-17T07:22:53.575Z,101982.72
2023-12-17T07:25:20.937Z,101981.19
2023-12-17T07:27:49.548Z,101988.34
2023-12-17T07:30:17.734Z,101993.72
2023-12-17T07:32:44.711Z,101986.41
2023-12-17T07:35:11.337Z,101998.63
2023-12-17T07:37:38.252Z,101990.84
2023-12-17T07:40:05.949Z,101989.19
2023-12-17T07:42:33.963Z,101989.72
2023-12-17T07:45:00.558Z,101989.94
2023-12-17T07:47:27.692Z,101996.13
2023-12-17T07:49:54.250Z,101995.16
2023-12-17T07:52:20.707Z,101996.28
2023-12-17T07:54:47.293Z,102006.91
2023-12-17T07:57:13.854Z,101992.56
2023-12-17T07:59:40.947Z,101980.34
2023-12-17T08:02:07.404Z,101983.53
2023-12-17T08:04:37.135Z,101983.50
2023-12-17T08:07:04.543Z,101983.44
2023-12-17T08:09:31.264Z,101970.56
2023-12-17T08:11:57.978Z,101981.78
2023-12-17T08:14:24.454Z,101988.59
2023-12-17T08:16:50.899Z,101979.66
2023-12-17T08:19:17.702Z,101978.69
2023-12-17T08:21:44.348Z,101976.53
2023-12-17T08:24:11.055Z,101980.16
2023-12-17T08:26:37.508Z,101979.44
2023-12-17T08:29:04.343Z,101987.16
2023-12-17T08:31:30.823Z,101995.16
2023-12-17T08:33:57.437Z,101988.97
2023-12-17T08:36:24.647Z,101987.09
2023-12-17T08:38:51.532Z,101981.06
2023-12-17T08:41:18.140Z,101980.28
2023-12-17T08:43:46.421Z,101983.34
2023-12-17T08:46:13.135Z,101982.28
2023-12-17T08:48:39.997Z,101982.16
2023-12-17T08:51:07.010Z,101984.97
2023-12-17T08:53:33.779Z,101978.66
2023-12-17T08:56:00.219Z,101978.06
2023-12-17T08:58:26.681Z,101973.66
2023-12-17T09:00:54.911Z,101971.19
2023-12-17T09:03:21.468Z,101974.53
2023-12-17T09:05:48.112Z,101968.84
2023-12-17T09:08:14.820Z,101968.84
2023-12-17T09:10:41.332Z,101962.00
2023-12-17T09:13:10.928Z,101962.06
2023-12-17T09:15:38.978Z,101953.38
2023-12-17T09:18:07.144Z,101958.69
2023-12-17T09:20:34.364Z,101962.88
2023-12-17T09:23:00.797Z,101971.34
2023-12-17T09:25:28.257Z,101972.31
2023-12-17T09:27:54.882Z,101972.31
2023-12-17T09:30:21.767Z,101968.94
2023-12-17T09:35:38.026Z,101969.16
2023-12-17T09:38:09.870Z,101972.00
2023-12-17T09:40:39.058Z,101967.28
2023-12-17T09:43:05.856Z,101974.63
2023-12-17T09:45:32.692Z,101976.00
2023-12-17T09:48:00.392Z,101967.84
2023-12-17T09:50:28.642Z,101970.50
2023-12-17T09:52:55.929Z,101973.75
2023-12-17T09:55:22.831Z,101978.25
2023-12-17T09:57:49.506Z,101972.75
2023-12-17T10:00:16.438Z,101972.66
2023-12-17T10:02:43.154Z,101968.41
2023-12-17T10:05:10.064Z,101970.41
2023-12-17T10:07:39.058Z,101964.31
2023-12-17T10:10:07.420Z,101941.38
2023-12-17T10:12:35.486Z,101939.47
2023-12-17T10:15:02.228Z,101939.41
2023-12-17T10:17:28.871Z,101944.25
2023-12-17T10:19:55.678Z,101936.22
2023-12-17T10:22:22.274Z,101942.56
2023-12-17T10:24:49.922Z,101931.28
2023-12-17T10:27:21.943Z,101907.69
2023-12-17T10:29:53.281Z,101914.13
2023-12-17T10:32:29.000Z,101912.25
2023-12-17T10:34:55.928Z,101895.88
2023-12-17T10:37:26.515Z,101907.63
2023-12-17T10:39:55.747Z,101905.75
2023-12-17T10:42:25.490Z,101895.44
2023-12-17T10:44:54.685Z,101893.53
2023-12-17T10:47:26.508Z,101896.13
2023-12-17T10:49:57.440Z,101896.34
2023-12-17T10:52:24.534Z,101894.91
2023-12-17T10:54:51.198Z,101895.88
2023-12-17T10:57:22.254Z,101881.59
2023-12-17T10:59:51.001Z,101878.97
2023-12-17T11:02:20.901Z,101874.69
2023-12-17T11:04:47.520Z,101879.34
2023-12-17T11:07:34.336Z,101874.16
2023-12-17T11:10:06.049Z,101881.97
2023-12-17T11:12:35.693Z,101872.28
2023-12-17T11:15:02.322Z,101868.50
2023-12-17T11:17:29.346Z,101860.25
2023-12-17T11:20:03.701Z,101865.75
2023-12-17T11:22:35.817Z,101856.53
2023-12-17T11:25:03.142Z,101850.00
2023-12-17T11:27:33.906Z,101851.66
2023-12-17T11:30:02.592Z,101844.34
2023-12-17T11:32:29.527Z,101841.53
2023-12-17T11:34:58.276Z,101838.53
2023-12-17T11:37:30.403Z,101841.03
2023-12-17T11:39:56.899Z,101840.25
2023-12-17T11:42:23.432Z,101829.22
2023-12-17T11:44:52.457Z,101826.00
2023-12-17T11:47:28.526Z,101833.03
2023-12-17T11:50:00.076Z,101820.88
2023-12-17T11:52:33.502Z,101826.69
2023-12-17T11:55:01.338Z,101824.31
2023-12-17T11:57:28.725Z,101827.47
2023-12-17T11:59:55.990Z,101821.09
2023-12-17T12:02:29.443Z,101826.88
2023-12-17T12:04:57.212Z,101814.94
2023-12-17T12:07:24.173Z,101814.88
2023-12-17T12:09:50.802Z,101811.78
2023-12-17T12:12:19.052Z,101808.56
2023-12-17T12:14:47.722Z,101810.06
2023-12-17T12:17:43.811Z,101810.06
2023-12-17T12:20:14.989Z,101810.59
2023-12-17T12:22:46.988Z,101812.41
2023-12-17T12:25:20.538Z,101814.56
2023-12-17T12:27:47.479Z,101808.66
2023-12-17T12:30:40.465Z,101798.19
2023-12-17T12:33:12.537Z,101793.47
2023-12-17T12:35:43.341Z,101797.50
2023-12-17T12:38:27.047Z,101803.03
2023-12-17T12:40:55.430Z,101798.34
2023-12-17T12:43:24.071Z,101787.09
2023-12-17T12:45:54.372Z,101783.81
2023-12-17T12:48:24.450Z,101781.09
2023-12-17T12:50:52.107Z,101789.81
2023-12-17T12:53:25.819Z,101791.41
2023-12-17T12:55:54.132Z,101781.41
2023-12-17T12:58:21.070Z,101783.22
2023-12-17T13:00:49.354Z,101778.66
2023-12-17T13:03:16.099Z,101788.06
2023-12-17T13:05:43.095Z,101769.00
2023-12-17T13:08:09.923Z,101774.91
2023-12-17T13:10:36.787Z,101766.09
2023-12-17T13:13:03.420Z,101755.63
2023-12-17T13:15:32.164Z,101754.03
2023-12-17T13:18:00.965Z,101753.16
2023-12-17T13:20:27.956Z,101747.03
2023-12-17T13:22:56.313Z,101756.53
2023-12-17T13:25:23.913Z,101751.06
2023-12-17T13:27:52.621Z,101741.13
2023-12-17T13:30:19.510Z,101739.91
2023-12-17T13:32:46.612Z,101734.22
2023-12-17T13:35:13.312Z,101734.50
2023-12-17T13:37:41.506Z,101727.06
2023-12-17T13:40:08.807Z,101728.38
2023-12-17T13:42:38.327Z,101735.81
2023-12-17T13:45:05.591Z,101730.19
2023-12-17T13:47:32.134Z,101724.50
2023-12-17T13:49:58.833Z,101724.09
2023-12-17T13:52:25.689Z,101726.50
2023-12-17T13:54:52.884Z,101717.75
2023-12-17T13:57:20.771Z,101722.94
2023-12-17T13:59:50.833Z,101719.47
2023-12-17T14:02:17.540Z,101726.22
2023-12-17T14:04:44.184Z,101721.72
2023-12-17T14:07:10.913Z,101726.16
2023-12-17T14:09:38.433Z,101724.56
2023-12-17T14:12:05.461Z,101715.06
2023-12-17T14:14:33.390Z,101729.50
2023-12-17T14:17:00.789Z,101724.28
2023-12-17T14:19:29.568Z,101727.72
2023-12-17T14:21:56.705Z,101720.03
2023-12-17T14:24:23.329Z,101725.34
2023-12-17T14:26:49.976Z,101718.53
2023-12-17T14:29:16.689Z,101712.50
2023-12-17T14:31:43.665Z,101713.53
2023-12-17T14:34:10.253Z,101715.34
2023-12-17T14:36:39.495Z,101711.91
2023-12-17T14:39:06.483Z,101707.56
2023-12-17T14:41:33.458Z,101698.78
2023-12-17T14:44:00.111Z,101705.88
2023-12-17T14:46:27.237Z,101701.56
2023-12-17T14:48:53.927Z,101691.91
2023-12-17T14:51:21.156Z,101697.19
2023-12-17T14:53:53.506Z,101697.31
2023-12-17T14:56:25.146Z,101701.78
2023-12-17T14:58:53.113Z,101699.16
2023-12-17T15:01:25.115Z,101707.16
2023-12-17T15:03:58.207Z,101695.75
2023-12-17T15:06:24.894Z,101697.44
2023-12-17T15:08:52.481Z,101701.94
2023-12-17T15:11:19.202Z,101700.19
2023-12-17T15:13:45.839Z,101701.91
2023-12-17T15:16:12.369Z,101704.47
2023-12-17T15:18:39.283Z,101704.47
2023-12-17T15:21:06.035Z,101700.94
2023-12-17T15:23:33.705Z,101700.94
2023-12-17T15:26:02.055Z,101707.16
2023-12-17T15:28:28.519Z,101695.09
2023-12-17T15:30:55.740Z,101694.34
2023-12-17T15:33:22.439Z,101701.19
2023-12-17T15:35:48.981Z,101701.22
2023-12-17T15:38:16.292Z,101707.34
2023-12-17T15:40:42.862Z,101711.78
2023-12-17T15:43:09.563Z,101724.16
2023-12-17T15:45:36.284Z,101717.22
2023-12-17T15:48:03.265Z,101703.97
2023-12-17T15:50:30.035Z,101704.09
2023-12-17T15:52:56.795Z,101709.47
2023-12-17T15:55:23.357Z,101710.41
2023-12-17T15:57:52.657Z,101710.47
2023-12-17T16:00:19.863Z,101705.16
2023-12-17T16:02:47.443Z,101709.47
2023-12-17T16:05:14.700Z,101706.84
2023-12-17T16:07:49.360Z,101704.16
2023-12-17T16:10:16.435Z,101706.75
2023-12-17T16:12:43.465Z,101710.25
2023-12-17T16:15:11.216Z,101707.66
2023-12-17T16:17:37.933Z,101712.03
2023-12-17T16:20:04.901Z,101706.78
2023-12-17T16:22:31.572Z,101708.69
2023-12-17T16:24:58.121Z,101704.38
2023-12-17T16:27:24.774Z,101710.56
2023-12-17T16:29:51.366Z,101716.75
2023-12-17T16:32:17.956Z,101710.56
2023-12-17T16:34:44.449Z,101711.50
2023-12-17T16:37:11.146Z,101707.16
2023-12-17T16:39:37.674Z,101708.06
2023-12-17T16:42:04.467Z,101706.31
2023-12-17T16:44:31.187Z,101707.22
2023-12-17T16:46:57.741Z,101713.38
2023-12-17T16:49:24.393Z,101711.59
2023-12-17T16:51:51.121Z,101713.38
2023-12-17T16:54:17.779Z,101718.66
2023-12-17T16:56:44.322Z,101712.56
2023-12-17T16:59:11.363Z,101713.41
2023-12-17T17:01:38.021Z,101707.28
2023-12-17T17:04:05.087Z,101710.81
2023-12-17T17:06:36.123Z,101714.34
2023-12-17T17:09:05.353Z,101712.59
2023-12-17T17:11:32.315Z,101709.06
2023-12-17T17:13:58.791Z,101719.63
2023-12-17T17:16:25.403Z,101710.84
2023-12-17T17:18:52.001Z,101717.88
2023-12-17T17:21:18.741Z,101717.00
2023-12-17T17:23:45.221Z,101722.28
2023-12-17T17:26:11.720Z,101726.66
2023-12-17T17:28:39.868Z,101729.28
2023-12-17T17:31:07.712Z,101731.06
2023-12-17T17:33:35.569Z,101735.44
2023-12-17T17:36:02.304Z,101719.69
2023-12-17T17:38:28.915Z,101733.69
2023-12-17T17:40:57.627Z,101734.56
2023-12-17T17:43:24.155Z,101730.16
2023-12-17T17:45:50.884Z,101731.88
2023-12-17T17:48:17.560Z,101733.63
2023-12-17T17:50:44.301Z,101735.44
2023-12-17T17:53:10.783Z,101729.31
2023-12-17T17:55:37.392Z,101733.72
2023-12-17T17:58:04.042Z,101738.94
2023-12-17T18:00:32.031Z,101734.56
2023-12-17T18:03:00.446Z,101746.81
2023-12-17T18:05:27.269Z,101745.91
2023-12-17T18:07:53.966Z,101741.59
2023-12-17T18:10:20.637Z,101750.34
2023-12-17T18:12:47.763Z,101745.13
2023-12-17T18:15:14.381Z,101746.88
2023-12-17T18:17:40.948Z,101752.13
2023-12-17T18:20:08.362Z,101748.56
2023-12-17T18:22:36.725Z,101752.94
2023-12-17T18:25:04.897Z,101748.47
2023-12-17T18:27:32.703Z,101749.31
2023-12-17T18:29:59.538Z,101758.06
2023-12-17T18:32:26.189Z,101756.13
2023-12-17T18:34:53.966Z,101742.97
2023-12-17T18:37:20.606Z,101746.53
2023-12-17T18:39:49.640Z,101738.59
2023-12-17T18:42:16.380Z,101742.19
2023-12-17T18:44:42.872Z,101736.03
2023-12-17T18:47:09.911Z,101731.56
2023-12-17T18:49:37.857Z,101722.75
2023-12-17T18:52:05.243Z,101721.03
2023-12-17T18:54:31.782Z,101707.84
2023-12-17T18:56:58.381Z,101719.28
2023-12-17T18:59:25.000Z,101720.22
2023-12-17T19:01:51.510Z,101728.13
2023-12-17T19:04:18.348Z,101727.28
2023-12-17T19:06:44.969Z,101719.44
2023-12-17T19:09:11.727Z,101727.34
2023-12-17T19:11:38.280Z,101723.88
2023-12-17T19:14:04.939Z,101726.56
2023-12-17T19:16:31.417Z,101730.03
2023-12-17T19:18:58.081Z,101730.91
2023-12-17T19:21:25.891Z,101745.78
2023-12-17T19:23:54.834Z,101737.00
2023-12-17T19:26:22.076Z,101742.25
2023-12-17T19:28:48.624Z,101740.56
2023-12-17T19:31:15.766Z,101737.94
2023-12-17T19:33:43.149Z,101742.38
2023-12-17T19:36:09.915Z,101743.28
2023-12-17T19:38:41.936Z,101728.34
2023-12-17T19:41:09.195Z,101716.97
2023-12-17T19:43:35.860Z,101723.13
2023-12-17T19:46:02.361Z,101727.47
2023-12-17T19:48:29.056Z,101727.50
2023-12-17T19:50:56.874Z,101728.28
2023-12-17T19:53:25.000Z,101719.59
2023-12-17T19:55:52.588Z,101712.59
2023-12-17T19:58:19.194Z,101721.41
2023-12-17T20:00:48.705Z,101715.25
2023-12-17T20:03:16.660Z,101717.03
2023-12-17T20:05:43.320Z,101709.13
2023-12-17T20:08:10.126Z,101714.38
2023-12-17T20:10:38.026Z,101714.38
2023-12-17T20:13:04.666Z,101718.72
2023-12-17T20:15:31.567Z,101716.94
2023-12-17T20:17:58.109Z,101720.41
2023-12-17T20:20:25.498Z,101718.69
2023-12-17T20:22:52.014Z,101712.59
2023-12-17T20:25:18.780Z,101716.94
2023-12-17T20:27:45.384Z,101714.31
2023-12-17T20:30:12.182Z,101716.94
2023-12-17T20:32:39.168Z,101716.09
2023-12-17T20:35:05.974Z,101712.59
2023-12-17T20:37:34.456Z,101713.47
2023-12-17T20:40:00.938Z,101709.94
2023-12-17T20:42:27.614Z,101712.59
2023-12-17T20:44:54.176Z,101712.53
2023-12-17T20:47:22.178Z,101708.09
2023-12-17T20:49:49.201Z,101704.59
2023-12-17T20:52:15.732Z,101695.81
2023-12-17T20:54:42.258Z,101697.50
2023-12-17T20:57:09.093Z,101696.63
2023-12-17T20:59:35.748Z,101693.09
2023-12-17T21:02:02.245Z,101680.78
2023-12-17T21:04:28.891Z,101678.97
2023-12-17T21:06:55.385Z,101663.19
2023-12-17T21:09:22.536Z,101669.25
2023-12-17T21:11:49.246Z,101666.63
2023-12-17T21:14:15.720Z,101669.94
2023-12-17T21:16:42.994Z,101678.81
2023-12-17T21:19:09.841Z,101669.97
2023-12-17T21:21:36.586Z,101679.66
2023-12-17T21:24:03.634Z,101675.31
2023-12-17T21:26:30.259Z,101675.22
2023-12-17T21:28:56.742Z,101673.44
2023-12-17T21:34:10.443Z,101682.06
2023-12-17T21:36:37.145Z,101672.44
2023-12-17T21:39:04.110Z,101677.38
2023-12-17T21:41:30.725Z,101667.72
2023-12-17T21:43:57.506Z,101664.16
2023-12-17T21:46:24.270Z,101672.00
2023-12-17T21:48:50.865Z,101670.38
2023-12-17T21:51:25.138Z,101671.44
2023-12-17T21:53:54.815Z,101671.59
2023-12-17T21:56:21.338Z,101666.34
2023-12-17T21:58:48.163Z,101669.94
2023-12-17T22:01:14.709Z,101668.19
2023-12-17T22:03:41.704Z,101659.41
2023-12-17T22:06:08.445Z,101656.69
2023-12-17T22:08:35.180Z,101657.59
2023-12-17T22:11:04.378Z,101661.16
2023-12-17T22:13:30.864Z,101657.56
2023-12-17T22:15:57.511Z,101657.63
2023-12-17T22:18:24.330Z,101649.78
2023-12-17T22:20:52.290Z,101640.16
2023-12-17T22:23:18.775Z,101642.03
2023-12-17T22:25:45.651Z,101640.91
2023-12-17T22:28:12.392Z,101631.44
2023-12-17T22:30:39.069Z,101636.81
2023-12-17T22:33:05.856Z,101642.16
2023-12-17T22:35:32.357Z,101640.47
2023-12-17T22:38:00.438Z,101638.78
2023-12-17T22:40:27.189Z,101634.47
2023-12-17T22:42:53.723Z,101631.84
2023-12-17T22:45:21.030Z,101630.03
2023-12-17T22:47:47.665Z,101628.31
2023-12-17T22:50:14.188Z,101625.63
2023-12-17T22:52:40.817Z,101626.50
2023-12-17T22:55:07.552Z,101618.69
2023-12-17T22:57:34.096Z,101617.81
2023-12-17T23:00:00.898Z,101616.09
2023-12-17T23:02:27.434Z,101603.81
2023-12-17T23:04:53.926Z,101603.78
2023-12-17T23:07:20.847Z,101602.84
2023-12-17T23:09:47.341Z,101598.47
2023-12-17T23:12:14.096Z,101591.44
2023-12-17T23:14:40.584Z,101589.63
2023-12-17T23:17:07.293Z,101584.28
2023-12-17T23:19:34.036Z,101585.94
2023-12-17T23:22:00.574Z,101576.97
2023-12-17T23:24:27.093Z,101576.00
2023-12-17T23:26:53.772Z,101575.06
2023-12-17T23:29:20.577Z,101585.28
2023-12-17T23:31:47.183Z,101574.75
2023-12-17T23:34:14.200Z,101580.00
2023-12-17T23:36:40.809Z,101571.97
2023-12-17T23:39:08.722Z,101572.91
2023-12-17T23:41:35.236Z,101569.38
2023-12-17T23:44:01.984Z,101566.78
2023-12-17T23:46:28.449Z,101575.50
2023-12-17T23:48:54.996Z,101568.47
2023-12-17T23:51:21.738Z,101566.75
2023-12-17T23:53:48.766Z,101568.41
2023-12-17T23:56:17.259Z,101561.41
2023-12-17T23:58:43.966Z,101568.41
